sensor_id;sensor_type;location;lat;lon;timestamp;P1;durP1;ratioP1;P2;durP2;ratioP2
8252;SDS011;61313;48.396;10.008;2023-01-19T00:00:05;8.63;;;6.20;;
8252;SDS011;61313;48.396;10.008;2023-01-19T00:02:36;7.30;;;6.60;;
8252;SDS011;61313;48.396;10.008;2023-01-19T00:05:02;7.40;;;6.60;;
8252;SDS011;61313;48.396;10.008;2023-01-19T00:07:29;7.77;;;6.37;;
8252;SDS011;61313;48.396;10.008;2023-01-19T00:09:55;13.70;;;7.07;;
8252;SDS011;61313;48.396;10.008;2023-01-19T00:12:20;7.83;;;6.03;;
8252;SDS011;61313;48.396;10.008;2023-01-19T00:14:45;7.10;;;6.40;;
8252;SDS011;61313;48.396;10.008;2023-01-19T00:17:11;9.47;;;6.77;;
8252;SDS011;61313;48.396;10.008;2023-01-19T00:19:36;11.90;;;7.20;;
8252;SDS011;61313;48.396;10.008;2023-01-19T00:22:02;10.07;;;7.17;;
8252;SDS011;61313;48.396;10.008;2023-01-19T00:24:29;10.03;;;7.10;;
8252;SDS011;61313;48.396;10.008;2023-01-19T00:26:55;7.80;;;6.13;;
8252;SDS011;61313;48.396;10.008;2023-01-19T00:29:21;14.70;;;7.50;;
8252;SDS011;61313;48.396;10.008;2023-01-19T00:31:47;9.50;;;6.73;;
8252;SDS011;61313;48.396;10.008;2023-01-19T00:34:12;12.70;;;8.20;;
8252;SDS011;61313;48.396;10.008;2023-01-19T00:36:38;7.97;;;5.57;;
8252;SDS011;61313;48.396;10.008;2023-01-19T00:39:03;7.17;;;5.90;;
8252;SDS011;61313;48.396;10.008;2023-01-19T00:41:28;12.83;;;7.23;;
8252;SDS011;61313;48.396;10.008;2023-01-19T00:44:13;10.00;;;7.60;;
8252;SDS011;61313;48.396;10.008;2023-01-19T00:46:39;10.60;;;6.13;;
8252;SDS011;61313;48.396;10.008;2023-01-19T00:49:04;7.27;;;6.57;;
8252;SDS011;61313;48.396;10.008;2023-01-19T00:51:30;8.93;;;7.30;;
8252;SDS011;61313;48.396;10.008;2023-01-19T00:53:56;13.33;;;7.10;;
8252;SDS011;61313;48.396;10.008;2023-01-19T00:56:23;11.63;;;7.17;;
8252;SDS011;61313;48.396;10.008;2023-01-19T00:58:49;13.63;;;7.50;;
8252;SDS011;61313;48.396;10.008;2023-01-19T01:01:14;11.70;;;6.77;;
8252;SDS011;61313;48.396;10.008;2023-01-19T01:03:40;8.20;;;7.33;;
8252;SDS011;61313;48.396;10.008;2023-01-19T01:06:05;10.97;;;6.90;;
8252;SDS011;61313;48.396;10.008;2023-01-19T01:08:32;9.77;;;6.70;;
8252;SDS011;61313;48.396;10.008;2023-01-19T01:10:58;8.70;;;7.50;;
8252;SDS011;61313;48.396;10.008;2023-01-19T01:13:24;7.57;;;6.37;;
8252;SDS011;61313;48.396;10.008;2023-01-19T01:15:51;10.53;;;7.07;;
8252;SDS011;61313;48.396;10.008;2023-01-19T01:18:17;9.90;;;6.80;;
8252;SDS011;61313;48.396;10.008;2023-01-19T01:20:43;9.77;;;6.60;;
8252;SDS011;61313;48.396;10.008;2023-01-19T01:23:08;23.60;;;8.30;;
8252;SDS011;61313;48.396;10.008;2023-01-19T01:25:33;26.07;;;8.90;;
8252;SDS011;61313;48.396;10.008;2023-01-19T01:28:03;13.40;;;7.63;;
8252;SDS011;61313;48.396;10.008;2023-01-19T01:30:32;16.37;;;7.40;;
8252;SDS011;61313;48.396;10.008;2023-01-19T01:32:59;18.83;;;7.50;;
8252;SDS011;61313;48.396;10.008;2023-01-19T01:35:24;8.43;;;6.10;;
8252;SDS011;61313;48.396;10.008;2023-01-19T01:37:50;10.20;;;6.70;;
8252;SDS011;61313;48.396;10.008;2023-01-19T01:40:16;8.60;;;6.90;;
8252;SDS011;61313;48.396;10.008;2023-01-19T01:42:42;10.17;;;7.07;;
8252;SDS011;61313;48.396;10.008;2023-01-19T01:50:33;22.40;;;8.00;;
8252;SDS011;61313;48.396;10.008;2023-01-19T01:53:01;11.60;;;7.23;;
8252;SDS011;61313;48.396;10.008;2023-01-19T01:55:31;7.47;;;6.67;;
8252;SDS011;61313;48.396;10.008;2023-01-19T01:58:02;19.30;;;12.17;;
8252;SDS011;61313;48.396;10.008;2023-01-19T02:00:29;17.80;;;9.67;;
8252;SDS011;61313;48.396;10.008;2023-01-19T02:03:18;8.43;;;7.47;;
8252;SDS011;61313;48.396;10.008;2023-01-19T02:05:45;9.47;;;7.40;;
8252;SDS011;61313;48.396;10.008;2023-01-19T02:08:12;12.00;;;7.40;;
8252;SDS011;61313;48.396;10.008;2023-01-19T02:10:59;26.13;;;9.50;;
8252;SDS011;61313;48.396;10.008;2023-01-19T02:13:44;23.90;;;7.40;;
8252;SDS011;61313;48.396;10.008;2023-01-19T02:16:13;8.23;;;7.33;;
8252;SDS011;61313;48.396;10.008;2023-01-19T02:18:40;10.37;;;7.80;;
8252;SDS011;61313;48.396;10.008;2023-01-19T02:21:20;11.00;;;7.20;;
8252;SDS011;61313;48.396;10.008;2023-01-19T02:23:50;8.30;;;7.50;;
8252;SDS011;61313;48.396;10.008;2023-01-19T02:26:19;13.50;;;8.60;;
8252;SDS011;61313;48.396;10.008;2023-01-19T02:28:56;13.50;;;7.97;;
8252;SDS011;61313;48.396;10.008;2023-01-19T02:31:24;10.73;;;7.90;;
8252;SDS011;61313;48.396;10.008;2023-01-19T02:33:51;11.37;;;8.40;;
8252;SDS011;61313;48.396;10.008;2023-01-19T02:36:18;15.70;;;7.83;;
8252;SDS011;61313;48.396;10.008;2023-01-19T02:38:49;9.47;;;7.87;;
8252;SDS011;61313;48.396;10.008;2023-01-19T02:41:17;12.37;;;8.03;;
8252;SDS011;61313;48.396;10.008;2023-01-19T02:43:45;14.83;;;9.00;;
8252;SDS011;61313;48.396;10.008;2023-01-19T02:46:13;9.80;;;8.63;;
8252;SDS011;61313;48.396;10.008;2023-01-19T02:48:42;21.77;;;8.73;;
8252;SDS011;61313;48.396;10.008;2023-01-19T02:51:19;18.63;;;8.90;;
8252;SDS011;61313;48.396;10.008;2023-01-19T03:07:04;14.03;;;7.60;;
8252;SDS011;61313;48.396;10.008;2023-01-19T03:12:14;12.40;;;8.13;;
8252;SDS011;61313;48.396;10.008;2023-01-19T03:14:43;13.20;;;9.00;;
8252;SDS011;61313;48.396;10.008;2023-01-19T03:17:11;10.97;;;8.37;;
8252;SDS011;61313;48.396;10.008;2023-01-19T03:19:41;13.87;;;8.13;;
8252;SDS011;61313;48.396;10.008;2023-01-19T03:22:12;12.10;;;8.97;;
8252;SDS011;61313;48.396;10.008;2023-01-19T03:24:41;11.50;;;7.87;;
8252;SDS011;61313;48.396;10.008;2023-01-19T03:27:10;15.53;;;8.23;;
8252;SDS011;61313;48.396;10.008;2023-01-19T03:29:43;16.50;;;8.60;;
8252;SDS011;61313;48.396;10.008;2023-01-19T03:32:15;11.17;;;7.97;;
8252;SDS011;61313;48.396;10.008;2023-01-19T03:34:43;10.77;;;8.57;;
8252;SDS011;61313;48.396;10.008;2023-01-19T03:37:12;15.87;;;8.27;;
8252;SDS011;61313;48.396;10.008;2023-01-19T03:39:40;13.10;;;8.60;;
8252;SDS011;61313;48.396;10.008;2023-01-19T03:42:08;12.43;;;9.13;;
8252;SDS011;61313;48.396;10.008;2023-01-19T03:44:37;11.97;;;8.87;;
8252;SDS011;61313;48.396;10.008;2023-01-19T03:47:04;14.43;;;9.83;;
8252;SDS011;61313;48.396;10.008;2023-01-19T03:49:34;12.10;;;9.47;;
8252;SDS011;61313;48.396;10.008;2023-01-19T03:52:00;10.90;;;8.70;;
8252;SDS011;61313;48.396;10.008;2023-01-19T03:54:26;11.30;;;8.60;;
8252;SDS011;61313;48.396;10.008;2023-01-19T03:56:52;10.13;;;8.97;;
8252;SDS011;61313;48.396;10.008;2023-01-19T03:59:18;11.73;;;8.43;;
8252;SDS011;61313;48.396;10.008;2023-01-19T04:01:44;9.97;;;8.77;;
8252;SDS011;61313;48.396;10.008;2023-01-19T04:04:10;10.93;;;7.83;;
8252;SDS011;61313;48.396;10.008;2023-01-19T04:06:37;12.00;;;8.23;;
8252;SDS011;61313;48.396;10.008;2023-01-19T04:09:03;11.90;;;9.03;;
8252;SDS011;61313;48.396;10.008;2023-01-19T04:11:28;12.53;;;8.30;;
8252;SDS011;61313;48.396;10.008;2023-01-19T04:13:54;13.23;;;9.20;;
8252;SDS011;61313;48.396;10.008;2023-01-19T04:16:19;10.77;;;8.90;;
8252;SDS011;61313;48.396;10.008;2023-01-19T04:18:45;9.97;;;8.93;;
8252;SDS011;61313;48.396;10.008;2023-01-19T04:21:11;9.70;;;8.70;;
8252;SDS011;61313;48.396;10.008;2023-01-19T04:23:36;12.40;;;9.20;;
8252;SDS011;61313;48.396;10.008;2023-01-19T04:26:05;10.23;;;8.40;;
8252;SDS011;61313;48.396;10.008;2023-01-19T04:28:32;11.90;;;8.07;;
8252;SDS011;61313;48.396;10.008;2023-01-19T04:30:59;11.67;;;9.20;;
8252;SDS011;61313;48.396;10.008;2023-01-19T04:33:26;11.90;;;9.50;;
8252;SDS011;61313;48.396;10.008;2023-01-19T04:35:52;9.27;;;7.63;;
8252;SDS011;61313;48.396;10.008;2023-01-19T04:38:18;12.97;;;8.63;;
8252;SDS011;61313;48.396;10.008;2023-01-19T04:40:44;19.23;;;9.90;;
8252;SDS011;61313;48.396;10.008;2023-01-19T04:43:10;9.70;;;8.70;;
8252;SDS011;61313;48.396;10.008;2023-01-19T04:45:35;13.43;;;8.13;;
8252;SDS011;61313;48.396;10.008;2023-01-19T04:48:01;11.83;;;8.90;;
8252;SDS011;61313;48.396;10.008;2023-01-19T04:50:31;11.10;;;7.93;;
8252;SDS011;61313;48.396;10.008;2023-01-19T04:52:56;15.97;;;9.27;;
8252;SDS011;61313;48.396;10.008;2023-01-19T04:55:22;15.03;;;10.40;;
8252;SDS011;61313;48.396;10.008;2023-01-19T04:57:48;19.60;;;12.63;;
8252;SDS011;61313;48.396;10.008;2023-01-19T05:00:14;11.13;;;9.60;;
8252;SDS011;61313;48.396;10.008;2023-01-19T05:02:39;10.63;;;8.40;;
8252;SDS011;61313;48.396;10.008;2023-01-19T05:05:08;9.73;;;8.73;;
8252;SDS011;61313;48.396;10.008;2023-01-19T05:07:33;12.40;;;8.73;;
8252;SDS011;61313;48.396;10.008;2023-01-19T05:09:59;20.80;;;9.80;;
8252;SDS011;61313;48.396;10.008;2023-01-19T05:12:24;16.90;;;9.57;;
8252;SDS011;61313;48.396;10.008;2023-01-19T05:14:50;13.43;;;8.77;;
8252;SDS011;61313;48.396;10.008;2023-01-19T05:17:15;11.50;;;9.30;;
8252;SDS011;61313;48.396;10.008;2023-01-19T05:19:40;14.43;;;9.23;;
8252;SDS011;61313;48.396;10.008;2023-01-19T05:22:06;13.07;;;8.60;;
8252;SDS011;61313;48.396;10.008;2023-01-19T05:24:31;16.20;;;9.40;;
8252;SDS011;61313;48.396;10.008;2023-01-19T05:26:57;22.50;;;9.83;;
8252;SDS011;61313;48.396;10.008;2023-01-19T05:29:23;11.83;;;8.90;;
8252;SDS011;61313;48.396;10.008;2023-01-19T05:31:48;11.90;;;8.43;;
8252;SDS011;61313;48.396;10.008;2023-01-19T05:34:13;16.43;;;8.93;;
8252;SDS011;61313;48.396;10.008;2023-01-19T05:36:39;21.50;;;9.73;;
8252;SDS011;61313;48.396;10.008;2023-01-19T05:39:05;19.90;;;8.47;;
8252;SDS011;61313;48.396;10.008;2023-01-19T05:41:31;16.40;;;9.27;;
8252;SDS011;61313;48.396;10.008;2023-01-19T05:43:56;11.73;;;9.03;;
8252;SDS011;61313;48.396;10.008;2023-01-19T05:46:22;10.33;;;8.50;;
8252;SDS011;61313;48.396;10.008;2023-01-19T05:48:48;11.80;;;8.83;;
8252;SDS011;61313;48.396;10.008;2023-01-19T05:51:14;12.50;;;9.13;;
8252;SDS011;61313;48.396;10.008;2023-01-19T05:53:39;13.43;;;10.37;;
8252;SDS011;61313;48.396;10.008;2023-01-19T05:56:05;11.80;;;8.87;;
8252;SDS011;61313;48.396;10.008;2023-01-19T05:58:37;14.00;;;9.87;;
8252;SDS011;61313;48.396;10.008;2023-01-19T06:01:06;14.07;;;9.57;;
8252;SDS011;61313;48.396;10.008;2023-01-19T06:03:33;22.73;;;12.87;;
8252;SDS011;61313;48.396;10.008;2023-01-19T06:06:00;15.17;;;9.77;;
8252;SDS011;61313;48.396;10.008;2023-01-19T06:08:25;11.50;;;9.53;;
8252;SDS011;61313;48.396;10.008;2023-01-19T06:10:51;12.27;;;9.27;;
8252;SDS011;61313;48.396;10.008;2023-01-19T06:13:17;16.27;;;8.20;;
8252;SDS011;61313;48.396;10.008;2023-01-19T06:15:42;10.83;;;9.03;;
8252;SDS011;61313;48.396;10.008;2023-01-19T06:18:08;12.77;;;9.47;;
8252;SDS011;61313;48.396;10.008;2023-01-19T06:20:34;26.87;;;10.87;;
8252;SDS011;61313;48.396;10.008;2023-01-19T06:23:00;35.87;;;11.50;;
8252;SDS011;61313;48.396;10.008;2023-01-19T06:25:25;16.93;;;8.93;;
8252;SDS011;61313;48.396;10.008;2023-01-19T06:27:51;12.00;;;8.60;;
8252;SDS011;61313;48.396;10.008;2023-01-19T06:30:16;17.43;;;10.23;;
8252;SDS011;61313;48.396;10.008;2023-01-19T06:32:42;18.07;;;9.73;;
8252;SDS011;61313;48.396;10.008;2023-01-19T06:35:08;15.37;;;10.00;;
8252;SDS011;61313;48.396;10.008;2023-01-19T06:37:34;13.60;;;9.60;;
8252;SDS011;61313;48.396;10.008;2023-01-19T06:39:59;14.80;;;9.47;;
8252;SDS011;61313;48.396;10.008;2023-01-19T06:42:25;19.40;;;9.30;;
8252;SDS011;61313;48.396;10.008;2023-01-19T06:44:50;15.53;;;9.77;;
8252;SDS011;61313;48.396;10.008;2023-01-19T06:47:16;14.60;;;9.87;;
8252;SDS011;61313;48.396;10.008;2023-01-19T06:49:42;17.00;;;10.13;;
8252;SDS011;61313;48.396;10.008;2023-01-19T06:52:11;34.53;;;10.27;;
8252;SDS011;61313;48.396;10.008;2023-01-19T06:54:39;31.83;;;12.00;;
8252;SDS011;61313;48.396;10.008;2023-01-19T06:57:05;48.87;;;13.87;;
8252;SDS011;61313;48.396;10.008;2023-01-19T06:59:30;16.80;;;10.00;;
8252;SDS011;61313;48.396;10.008;2023-01-19T07:01:56;15.40;;;10.30;;
8252;SDS011;61313;48.396;10.008;2023-01-19T07:04:21;16.70;;;10.17;;
8252;SDS011;61313;48.396;10.008;2023-01-19T07:06:47;25.30;;;10.57;;
8252;SDS011;61313;48.396;10.008;2023-01-19T07:09:12;12.60;;;9.37;;
8252;SDS011;61313;48.396;10.008;2023-01-19T07:11:38;14.70;;;10.10;;
8252;SDS011;61313;48.396;10.008;2023-01-19T07:14:04;18.00;;;9.87;;
8252;SDS011;61313;48.396;10.008;2023-01-19T07:16:29;18.30;;;9.30;;
8252;SDS011;61313;48.396;10.008;2023-01-19T07:18:55;13.43;;;10.00;;
8252;SDS011;61313;48.396;10.008;2023-01-19T07:21:20;12.27;;;8.30;;
8252;SDS011;61313;48.396;10.008;2023-01-19T07:23:49;20.50;;;10.17;;
8252;SDS011;61313;48.396;10.008;2023-01-19T07:26:15;22.57;;;10.80;;
8252;SDS011;61313;48.396;10.008;2023-01-19T07:28:45;14.70;;;9.70;;
8252;SDS011;61313;48.396;10.008;2023-01-19T07:31:11;19.30;;;9.70;;
8252;SDS011;61313;48.396;10.008;2023-01-19T07:33:36;15.40;;;9.03;;
8252;SDS011;61313;48.396;10.008;2023-01-19T07:36:02;13.87;;;10.23;;
8252;SDS011;61313;48.396;10.008;2023-01-19T07:38:27;17.63;;;10.67;;
8252;SDS011;61313;48.396;10.008;2023-01-19T07:41:02;13.57;;;9.50;;
8252;SDS011;61313;48.396;10.008;2023-01-19T07:43:29;17.17;;;10.40;;
8252;SDS011;61313;48.396;10.008;2023-01-19T07:45:55;12.90;;;9.10;;
8252;SDS011;61313;48.396;10.008;2023-01-19T07:48:26;34.33;;;11.27;;
8252;SDS011;61313;48.396;10.008;2023-01-19T07:50:51;18.80;;;10.13;;
8252;SDS011;61313;48.396;10.008;2023-01-19T07:53:17;48.80;;;13.30;;
8252;SDS011;61313;48.396;10.008;2023-01-19T07:55:43;17.43;;;10.60;;
8252;SDS011;61313;48.396;10.008;2023-01-19T07:58:09;65.27;;;12.27;;
8252;SDS011;61313;48.396;10.008;2023-01-19T08:00:35;74.07;;;14.67;;
8252;SDS011;61313;48.396;10.008;2023-01-19T08:03:01;18.67;;;10.57;;
8252;SDS011;61313;48.396;10.008;2023-01-19T08:05:27;15.43;;;9.03;;
8252;SDS011;61313;48.396;10.008;2023-01-19T08:07:53;10.80;;;9.00;;
8252;SDS011;61313;48.396;10.008;2023-01-19T08:10:22;11.43;;;10.00;;
8252;SDS011;61313;48.396;10.008;2023-01-19T08:12:51;16.60;;;9.50;;
8252;SDS011;61313;48.396;10.008;2023-01-19T08:15:17;10.83;;;9.80;;
8252;SDS011;61313;48.396;10.008;2023-01-19T08:17:42;11.40;;;10.23;;
8252;SDS011;61313;48.396;10.008;2023-01-19T08:20:08;12.00;;;10.33;;
8252;SDS011;61313;48.396;10.008;2023-01-19T08:22:35;13.47;;;11.17;;
8252;SDS011;61313;48.396;10.008;2023-01-19T08:25:01;10.90;;;9.80;;
8252;SDS011;61313;48.396;10.008;2023-01-19T08:27:26;19.97;;;11.43;;
8252;SDS011;61313;48.396;10.008;2023-01-19T08:29:52;14.00;;;11.20;;
8252;SDS011;61313;48.396;10.008;2023-01-19T08:32:18;13.63;;;10.73;;
8252;SDS011;61313;48.396;10.008;2023-01-19T08:34:44;15.37;;;11.83;;
8252;SDS011;61313;48.396;10.008;2023-01-19T08:37:09;17.33;;;11.77;;
8252;SDS011;61313;48.396;10.008;2023-01-19T08:39:35;11.70;;;10.37;;
8252;SDS011;61313;48.396;10.008;2023-01-19T08:42:00;14.97;;;11.37;;
8252;SDS011;61313;48.396;10.008;2023-01-19T08:44:26;14.00;;;11.43;;
8252;SDS011;61313;48.396;10.008;2023-01-19T08:46:52;14.53;;;11.50;;
8252;SDS011;61313;48.396;10.008;2023-01-19T08:49:18;13.50;;;11.60;;
8252;SDS011;61313;48.396;10.008;2023-01-19T08:51:43;12.87;;;11.53;;
8252;SDS011;61313;48.396;10.008;2023-01-19T08:54:11;26.57;;;12.80;;
8252;SDS011;61313;48.396;10.008;2023-01-19T08:56:36;23.60;;;11.97;;
8252;SDS011;61313;48.396;10.008;2023-01-19T08:59:02;28.00;;;11.70;;
8252;SDS011;61313;48.396;10.008;2023-01-19T09:01:27;22.53;;;11.63;;
8252;SDS011;61313;48.396;10.008;2023-01-19T09:03:53;20.93;;;13.03;;
8252;SDS011;61313;48.396;10.008;2023-01-19T09:06:18;21.37;;;11.90;;
8252;SDS011;61313;48.396;10.008;2023-01-19T09:08:44;57.43;;;15.90;;
8252;SDS011;61313;48.396;10.008;2023-01-19T09:11:11;73.00;;;14.70;;
8252;SDS011;61313;48.396;10.008;2023-01-19T09:13:38;23.23;;;12.57;;
8252;SDS011;61313;48.396;10.008;2023-01-19T09:16:05;18.77;;;11.90;;
8252;SDS011;61313;48.396;10.008;2023-01-19T09:18:32;15.80;;;12.03;;
8252;SDS011;61313;48.396;10.008;2023-01-19T09:20:58;16.33;;;12.17;;
8252;SDS011;61313;48.396;10.008;2023-01-19T09:23:24;18.70;;;12.10;;
8252;SDS011;61313;48.396;10.008;2023-01-19T09:25:54;15.53;;;11.63;;
8252;SDS011;61313;48.396;10.008;2023-01-19T09:28:21;13.03;;;10.80;;
8252;SDS011;61313;48.396;10.008;2023-01-19T09:30:46;14.03;;;10.60;;
8252;SDS011;61313;48.396;10.008;2023-01-19T09:33:12;13.80;;;11.10;;
8252;SDS011;61313;48.396;10.008;2023-01-19T09:35:39;27.07;;;12.53;;
8252;SDS011;61313;48.396;10.008;2023-01-19T09:38:06;18.23;;;12.30;;
8252;SDS011;61313;48.396;10.008;2023-01-19T09:40:33;29.73;;;13.70;;
8252;SDS011;61313;48.396;10.008;2023-01-19T09:45:47;19.00;;;11.53;;
8252;SDS011;61313;48.396;10.008;2023-01-19T09:51:11;60.97;;;14.03;;
8252;SDS011;61313;48.396;10.008;2023-01-19T09:54:02;34.57;;;11.60;;
8252;SDS011;61313;48.396;10.008;2023-01-19T09:56:37;24.33;;;10.63;;
8252;SDS011;61313;48.396;10.008;2023-01-19T09:59:12;16.00;;;10.20;;
8252;SDS011;61313;48.396;10.008;2023-01-19T10:04:24;14.00;;;10.37;;
8252;SDS011;61313;48.396;10.008;2023-01-19T10:06:50;12.53;;;11.13;;
8252;SDS011;61313;48.396;10.008;2023-01-19T10:09:26;15.13;;;10.90;;
8252;SDS011;61313;48.396;10.008;2023-01-19T10:12:07;17.93;;;11.03;;
8252;SDS011;61313;48.396;10.008;2023-01-19T10:14:43;19.50;;;10.47;;
8252;SDS011;61313;48.396;10.008;2023-01-19T10:17:33;15.33;;;11.20;;
8252;SDS011;61313;48.396;10.008;2023-01-19T10:20:12;16.57;;;11.27;;
8252;SDS011;61313;48.396;10.008;2023-01-19T10:22:42;17.20;;;10.77;;
8252;SDS011;61313;48.396;10.008;2023-01-19T10:25:13;14.93;;;11.00;;
8252;SDS011;61313;48.396;10.008;2023-01-19T10:27:43;26.87;;;11.53;;
8252;SDS011;61313;48.396;10.008;2023-01-19T10:30:14;20.03;;;12.10;;
8252;SDS011;61313;48.396;10.008;2023-01-19T10:32:43;16.70;;;11.20;;
8252;SDS011;61313;48.396;10.008;2023-01-19T10:35:17;12.73;;;10.60;;
8252;SDS011;61313;48.396;10.008;2023-01-19T10:37:52;13.93;;;9.70;;
8252;SDS011;61313;48.396;10.008;2023-01-19T10:40:37;16.60;;;11.30;;
8252;SDS011;61313;48.396;10.008;2023-01-19T10:43:27;20.43;;;11.20;;
8252;SDS011;61313;48.396;10.008;2023-01-19T10:46:01;23.30;;;11.53;;
8252;SDS011;61313;48.396;10.008;2023-01-19T10:48:35;25.43;;;10.60;;
8252;SDS011;61313;48.396;10.008;2023-01-19T10:51:03;11.90;;;9.80;;
8252;SDS011;61313;48.396;10.008;2023-01-19T10:53:29;13.90;;;10.83;;
8252;SDS011;61313;48.396;10.008;2023-01-19T10:58:36;12.57;;;9.50;;
8252;SDS011;61313;48.396;10.008;2023-01-19T11:03:44;10.70;;;9.50;;
8252;SDS011;61313;48.396;10.008;2023-01-19T11:08:42;11.97;;;9.70;;
8252;SDS011;61313;48.396;10.008;2023-01-19T11:11:09;15.23;;;9.30;;
8252;SDS011;61313;48.396;10.008;2023-01-19T11:13:36;124.90;;;20.53;;
8252;SDS011;61313;48.396;10.008;2023-01-19T11:18:41;47.13;;;13.40;;
8252;SDS011;61313;48.396;10.008;2023-01-19T11:21:11;39.07;;;12.07;;
8252;SDS011;61313;48.396;10.008;2023-01-19T11:23:39;30.23;;;12.07;;
8252;SDS011;61313;48.396;10.008;2023-01-19T11:26:12;21.80;;;10.90;;
8252;SDS011;61313;48.396;10.008;2023-01-19T11:28:49;25.70;;;10.60;;
8252;SDS011;61313;48.396;10.008;2023-01-19T11:31:34;28.97;;;13.63;;
8252;SDS011;61313;48.396;10.008;2023-01-19T11:34:01;13.93;;;10.00;;
8252;SDS011;61313;48.396;10.008;2023-01-19T11:36:29;17.80;;;9.27;;
8252;SDS011;61313;48.396;10.008;2023-01-19T11:39:19;17.67;;;10.70;;
8252;SDS011;61313;48.396;10.008;2023-01-19T11:41:52;18.70;;;9.40;;
8252;SDS011;61313;48.396;10.008;2023-01-19T11:44:20;12.57;;;11.20;;
8252;SDS011;61313;48.396;10.008;2023-01-19T11:46:52;15.43;;;10.37;;
8252;SDS011;61313;48.396;10.008;2023-01-19T11:49:22;20.77;;;10.10;;
8252;SDS011;61313;48.396;10.008;2023-01-19T11:52:21;49.53;;;13.43;;
8252;SDS011;61313;48.396;10.008;2023-01-19T11:57:53;78.53;;;16.57;;
8252;SDS011;61313;48.396;10.008;2023-01-19T12:02:47;63.80;;;15.73;;
8252;SDS011;61313;48.396;10.008;2023-01-19T12:05:17;69.27;;;15.20;;
8252;SDS011;61313;48.396;10.008;2023-01-19T12:07:44;13.73;;;8.90;;
8252;SDS011;61313;48.396;10.008;2023-01-19T12:12:50;53.80;;;13.47;;
8252;SDS011;61313;48.396;10.008;2023-01-19T12:15:23;28.77;;;10.47;;
8252;SDS011;61313;48.396;10.008;2023-01-19T12:17:55;15.87;;;9.53;;
8252;SDS011;61313;48.396;10.008;2023-01-19T12:20:25;11.30;;;7.33;;
8252;SDS011;61313;48.396;10.008;2023-01-19T12:25:45;22.63;;;10.47;;
8252;SDS011;61313;48.396;10.008;2023-01-19T12:28:26;11.10;;;8.27;;
8252;SDS011;61313;48.396;10.008;2023-01-19T12:30:55;10.20;;;9.03;;
8252;SDS011;61313;48.396;10.008;2023-01-19T12:38:42;23.73;;;9.20;;
8252;SDS011;61313;48.396;10.008;2023-01-19T12:49:04;19.03;;;9.00;;
8252;SDS011;61313;48.396;10.008;2023-01-19T12:51:35;21.97;;;10.70;;
8252;SDS011;61313;48.396;10.008;2023-01-19T12:54:00;16.43;;;8.07;;
8252;SDS011;61313;48.396;10.008;2023-01-19T12:56:34;10.53;;;9.37;;
8252;SDS011;61313;48.396;10.008;2023-01-19T12:59:02;18.63;;;8.90;;
8252;SDS011;61313;48.396;10.008;2023-01-19T13:01:28;14.23;;;8.97;;
8252;SDS011;61313;48.396;10.008;2023-01-19T13:09:36;12.60;;;8.83;;
8252;SDS011;61313;48.396;10.008;2023-01-19T13:12:21;10.37;;;8.30;;
8252;SDS011;61313;48.396;10.008;2023-01-19T13:14:49;13.93;;;9.00;;
8252;SDS011;61313;48.396;10.008;2023-01-19T13:20:31;12.10;;;9.70;;
8252;SDS011;61313;48.396;10.008;2023-01-19T13:22:49;30.73;;;12.07;;
8252;SDS011;61313;48.396;10.008;2023-01-19T13:25:31;17.70;;;10.83;;
8252;SDS011;61313;48.396;10.008;2023-01-19T13:27:59;13.43;;;9.83;;
8252;SDS011;61313;48.396;10.008;2023-01-19T13:30:26;16.83;;;9.90;;
8252;SDS011;61313;48.396;10.008;2023-01-19T13:32:54;12.27;;;9.43;;
8252;SDS011;61313;48.396;10.008;2023-01-19T13:35:25;13.93;;;9.13;;
8252;SDS011;61313;48.396;10.008;2023-01-19T13:37:51;16.90;;;9.00;;
8252;SDS011;61313;48.396;10.008;2023-01-19T13:40:19;21.87;;;10.30;;
8252;SDS011;61313;48.396;10.008;2023-01-19T13:42:47;14.73;;;8.93;;
8252;SDS011;61313;48.396;10.008;2023-01-19T13:45:29;38.37;;;12.77;;
8252;SDS011;61313;48.396;10.008;2023-01-19T13:48:01;23.57;;;11.80;;
8252;SDS011;61313;48.396;10.008;2023-01-19T13:50:31;11.80;;;10.40;;
8252;SDS011;61313;48.396;10.008;2023-01-19T13:52:59;13.70;;;10.57;;
8252;SDS011;61313;48.396;10.008;2023-01-19T13:55:26;14.07;;;9.70;;
8252;SDS011;61313;48.396;10.008;2023-01-19T13:57:52;11.63;;;9.20;;
8252;SDS011;61313;48.396;10.008;2023-01-19T14:00:20;10.80;;;9.10;;
8252;SDS011;61313;48.396;10.008;2023-01-19T14:07:47;12.10;;;9.70;;
8252;SDS011;61313;48.396;10.008;2023-01-19T14:10:13;12.10;;;9.50;;
8252;SDS011;61313;48.396;10.008;2023-01-19T14:12:41;16.07;;;9.17;;
8252;SDS011;61313;48.396;10.008;2023-01-19T14:15:08;18.37;;;13.10;;
8252;SDS011;61313;48.396;10.008;2023-01-19T14:17:38;13.60;;;9.90;;
8252;SDS011;61313;48.396;10.008;2023-01-19T14:20:05;16.80;;;10.80;;
8252;SDS011;61313;48.396;10.008;2023-01-19T14:22:51;11.43;;;8.50;;
8252;SDS011;61313;48.396;10.008;2023-01-19T14:25:29;21.47;;;12.30;;
8252;SDS011;61313;48.396;10.008;2023-01-19T14:30:58;10.77;;;8.13;;
8252;SDS011;61313;48.396;10.008;2023-01-19T14:33:32;9.30;;;8.27;;
8252;SDS011;61313;48.396;10.008;2023-01-19T14:36:07;16.53;;;7.97;;
8252;SDS011;61313;48.396;10.008;2023-01-19T14:38:44;11.47;;;8.20;;
8252;SDS011;61313;48.396;10.008;2023-01-19T14:41:11;17.23;;;8.23;;
8252;SDS011;61313;48.396;10.008;2023-01-19T14:43:45;14.30;;;8.30;;
8252;SDS011;61313;48.396;10.008;2023-01-19T14:46:17;38.27;;;11.00;;
8252;SDS011;61313;48.396;10.008;2023-01-19T14:48:46;23.70;;;8.37;;
8252;SDS011;61313;48.396;10.008;2023-01-19T14:51:17;43.60;;;12.40;;
8252;SDS011;61313;48.396;10.008;2023-01-19T14:53:46;26.03;;;10.63;;
8252;SDS011;61313;48.396;10.008;2023-01-19T14:56:26;9.70;;;8.17;;
8252;SDS011;61313;48.396;10.008;2023-01-19T14:58:54;11.67;;;6.80;;
8252;SDS011;61313;48.396;10.008;2023-01-19T15:01:24;10.33;;;6.47;;
8252;SDS011;61313;48.396;10.008;2023-01-19T15:03:52;13.27;;;7.90;;
8252;SDS011;61313;48.396;10.008;2023-01-19T15:06:21;17.70;;;8.20;;
8252;SDS011;61313;48.396;10.008;2023-01-19T15:08:48;18.17;;;8.03;;
8252;SDS011;61313;48.396;10.008;2023-01-19T15:11:17;8.20;;;6.30;;
8252;SDS011;61313;48.396;10.008;2023-01-19T15:13:48;11.10;;;7.07;;
8252;SDS011;61313;48.396;10.008;2023-01-19T15:16:14;9.77;;;7.00;;
8252;SDS011;61313;48.396;10.008;2023-01-19T15:18:40;10.30;;;6.63;;
8252;SDS011;61313;48.396;10.008;2023-01-19T15:21:08;11.27;;;7.50;;
8252;SDS011;61313;48.396;10.008;2023-01-19T15:23:45;11.23;;;6.80;;
8252;SDS011;61313;48.396;10.008;2023-01-19T15:26:15;30.13;;;9.80;;
8252;SDS011;61313;48.396;10.008;2023-01-19T15:28:42;19.77;;;8.57;;
8252;SDS011;61313;48.396;10.008;2023-01-19T15:31:15;14.30;;;7.77;;
8252;SDS011;61313;48.396;10.008;2023-01-19T15:33:43;66.77;;;15.50;;
8252;SDS011;61313;48.396;10.008;2023-01-19T15:36:15;25.70;;;9.13;;
8252;SDS011;61313;48.396;10.008;2023-01-19T15:38:42;13.50;;;8.60;;
8252;SDS011;61313;48.396;10.008;2023-01-19T15:41:21;14.30;;;8.70;;
8252;SDS011;61313;48.396;10.008;2023-01-19T15:43:49;18.47;;;7.43;;
8252;SDS011;61313;48.396;10.008;2023-01-19T15:46:16;44.27;;;10.33;;
8252;SDS011;61313;48.396;10.008;2023-01-19T15:48:43;17.60;;;9.57;;
8252;SDS011;61313;48.396;10.008;2023-01-19T15:51:11;57.63;;;11.63;;
8252;SDS011;61313;48.396;10.008;2023-01-19T15:53:38;15.93;;;6.10;;
8252;SDS011;61313;48.396;10.008;2023-01-19T15:56:04;10.87;;;6.30;;
8252;SDS011;61313;48.396;10.008;2023-01-19T15:58:30;23.60;;;9.63;;